GMT,Max TemperatureF,Mean TemperatureF,Min TemperatureF,Max Dew PointF,MeanDew PointF,Min DewpointF,Max Humidity, Mean Humidity, Min Humidity, Max Sea Level PressureIn, Mean Sea Level PressureIn, Min Sea Level PressureIn, Max VisibilityMiles, Mean VisibilityMiles, Min VisibilityMiles, Max Wind SpeedMPH, Mean Wind SpeedMPH, Max Gust SpeedMPH,PrecipitationIn, CloudCover, Events, WindDirDegrees
2012-12-1,48,40,33,43,39,32,100,89,72,30.11,30.06,29.98,16,8,6,15,8,,0.02,3,Rain,339
2012-12-2,52,46,41,52,44,37,100,94,81,30.10,30.02,29.95,12,4,0,20,7,28,0.20,8,Rain,311
2012-12-3,50,46,41,52,44,37,100,88,72,29.95,29.87,29.80,12,6,0,21,14,38,0.08,6,Rain,293
2012-12-4,47,44,42,41,39,36,93,79,66,29.86,29.78,29.65,9,6,2,23,18,40,0.03,3,Rain,304
2012-12-5,45,41,37,40,36,32,87,77,56,30.10,29.91,29.68,16,7,2,21,14,36,0.01,2,Rain,346
2012-12-6,48,40,32,45,36,27,93,80,59,30.09,29.93,29.68,17,8,6,29,9,43,0.01,5,Rain,268
2012-12-7,48,45,42,41,38,36,87,72,60,30.17,29.89,29.68,11,7,6,28,21,48,0.00,5,Rain,341
2012-12-8,49,44,39,41,40,36,93,81,63,30.41,30.33,30.15,16,8,6,15,11,,0.00,4,,336
2012-12-9,49,48,46,45,42,39,95,82,62,30.37,30.26,30.18,12,7,2,17,14,,0.01,7,Rain,299
2012-12-10,45,39,33,45,36,31,100,85,65,30.38,30.26,30.18,16,8,3,12,7,,0.00,4,Rain,50
2012-12-11,44,38,33,34,33,30,93,71,54,30.40,30.33,30.21,12,8,6,17,11,,0.00,4,,116
2012-12-12,43,41,39,36,33,30,76,70,58,30.18,29.95,29.71,12,7,6,16,13,26,0.00,5,Rain,147
2012-12-13,49,43,37,46,40,31,100,87,73,29.68,29.49,29.27,12,6,2,21,12,,0.01,6,Rain,123
2012-12-14,51,49,47,52,46,45,100,88,79,29.21,28.96,28.82,11,5,2,26,18,41,0.39,5,Rain,232
2012-12-15,51,48,46,46,44,43,93,83,74,29.48,29.30,29.12,12,7,2,24,18,39,0.04,4,Rain,250
2012-12-16,51,48,44,46,45,43,93,84,74,29.53,29.50,29.44,9,6,4,24,17,41,0.31,5,Rain,249
2012-12-17,50,48,46,45,42,39,87,79,64,29.86,29.68,29.50,12,7,5,26,19,44,0.00,3,Rain,283
2012-12-18,50,46,42,46,45,41,100,89,81,30.05,29.99,29.89,12,7,5,18,12,33,0.00,5,Rain,203
2012-12-19,53,50,48,54,51,48,100,98,94,29.86,29.73,29.59,3,1,0,25,15,39,0.16,8,Fog-Rain,182
2012-12-20,50,49,48,50,48,46,100,93,87,29.71,29.53,29.39,11,4,0,14,9,25,0.31,6,Rain,291
2012-12-21,51,48,44,51,47,43,100,96,89,29.92,29.84,29.71,6,3,1,22,9,34,0.01,6,Rain,240
2012-12-22,54,54,53,54,53,52,100,99,94,29.71,29.62,29.59,2,1,0,34,23,45,0.12,8,Rain,235
2012-12-23,51,50,48,54,48,45,100,92,86,29.75,29.68,29.59,7,4,3,32,17,39,0.02,7,Rain,234
2012-12-24,51,50,48,50,48,45,100,93,77,29.62,29.44,29.33,12,6,0,26,11,40,0.20,6,Rain,218
2012-12-25,50,48,46,45,44,41,93,83,67,29.81,29.47,29.15,12,7,5,31,23,43,0.08,4,Rain,272
2012-12-26,52,50,48,50,47,41,100,87,72,29.83,29.74,29.62,11,5,2,37,20,48,0.12,7,Rain,258
2012-12-27,51,48,46,51,44,41,100,85,74,30.13,29.86,29.56,11,5,1,39,21,53,0.02,6,Rain,271
2012-12-28,53,52,51,52,51,50,100,93,85,30.07,29.94,29.71,3,2,0,28,21,47,0.01,8,Rain,220
2012-12-29,49,46,42,52,44,37,100,86,64,29.78,29.60,29.50,11,4,0,30,21,54,0.31,6,Rain,250
2012-12-30,51,48,44,50,46,39,94,86,71,30.00,29.92,29.80,9,6,5,28,19,44,0.02,5,Rain,254
2012-12-31,51,48,44,50,48,41,100,94,87,29.83,29.62,29.50,9,5,1,36,22,50,0.47,6,Rain,253